Accueil
METAR-TAF:

METAR-TAF

Aéroports :

Aérodrome de Pantelleria

Pantelleria, Italie

latitude: 36-49N, longitude: 011-58E, altitude: 191 m

Observation

Le bulletin a été fait il y a 7 heures et 5 minutes, à 17:50 UTC
Vent 4 kt de nord-ouest
Température 34°C
Humidité 23%
Pression 1014 hPa
Visibilité 10 km ou plus
pas de nuages en-dessous de 1500 mètres et pas de cumulonimbus.

METAR: LICG 031750Z 31004KT CAVOK 34/10 Q1014

Heure: 02:55 (00:55 UTC)

Prévision

Le bulletin a été fait il y a 10 heures et 55 minutes, à 14:00 UTC
Prévision valable du 03 à 15 UTC au 03 à 24 UTC
Vent 13 kt de est/sud-est
Visibilité 10 km ou plus
Quelques nuages à une hauteur de 2000 ft

TAF: LICG 031400Z 0315/0324 11013KT 9999 FEW020

Observations et prévisions météorologiques de plus de 4000 aéroports (messages METAR et TAF).

Les stations disponibles sont représentées par des disques jaunes et rouges sur la carte.

Passer la souris dessus pour voir le nom de la station.

Cliquer dessus pour voir les observations et prévisions météorologiques.

Pour changer de carte: cliquez sur les boutons verts avec une croix noire pour zoomer, sur le bouton vert avec un tiret pour effectuer un zoom arrière, ou sur les flèches vertes pour les cartes adjacentes.


METAR-TAF: